Williams Township, Pennsylvania
Current Conditions -  °F | °C
As of 7:51 PM on Wednesday 17 Dec 2014 (Local Time) from KABE Reporting Station
Overcast Overcast  
Wind Chill: 35°   Ceiling: 5000
Heat Index: 41°   Visibility: 10mi
Dew Point: 25°   Wind: 10mph
Humidity: 53%   Direction: 290°WNW
Pressure: 29.94"   Gusts: 21mph
Location:  40.6369°N, 75.2272°W
Report Text: KABE 180051Z 29009G18KT 10SM OVC050 05/M04 A2994 RMK AO2 SLP141 T00501039
Loading
Personal Weather Stations






























Interactive Weather Map New forecast layout! Learn more

10-Day Weather Forecast

Advertisements
Track Severe Weather on mobile